Excelsior Springs, Missouri
Current Conditions -  °F | °C
As of 12:55 AM on Wednesday 28 Jan 2015 (Local Time) from KGPH Reporting Station
NA  
Wind Chill: 34°   Ceiling: NA
Heat Index: 39°   Visibility: 10mi
Dew Point: 32°   Wind: 7mph
Humidity: 75%   Direction: 130°SE
Pressure: 30.06"   Gusts: NA
Location:  39.34°N, 94.23°W
Report Text: KGPH 280655Z AUTO 13006KT 10SM 04/00 A3006 RMK AO2
Loading
Personal Weather Stations






























Interactive Weather Map New forecast layout! Learn more

10-Day Weather Forecast

Advertisements
Track Severe Weather on mobile